createdAt,value
2022-11-19T00:01:43.389Z,94997.35
2022-11-19T00:07:18.921Z,94985.15
2022-11-19T00:10:08.969Z,94984.38
2022-11-19T00:12:58.157Z,94986.63
2022-11-19T00:15:46.267Z,94991.30
2022-11-19T00:21:22.766Z,94989.09
2022-11-19T00:24:11.504Z,94990.44
2022-11-19T00:29:46.679Z,94980.98
2022-11-19T00:35:29.116Z,94986.08
2022-11-19T00:38:17.833Z,94988.70
2022-11-19T00:41:07.013Z,94983.80
2022-11-19T00:46:41.481Z,94980.69
2022-11-19T00:52:15.610Z,94988.83
2022-11-19T00:55:06.756Z,94984.77
2022-11-19T00:57:55.585Z,94977.42
2022-11-19T01:00:43.975Z,94984.71
2022-11-19T01:06:20.920Z,94990.27
2022-11-19T01:11:54.629Z,94994.07
2022-11-19T01:17:26.595Z,95003.30
2022-11-19T01:25:33.664Z,95008.56
2022-11-19T01:28:21.966Z,95011.45
2022-11-19T01:34:00.117Z,95010.75
2022-11-19T01:36:48.999Z,95013.86
2022-11-19T01:42:24.237Z,95015.88
2022-11-19T01:45:26.077Z,95016.03
2022-11-19T01:50:55.938Z,95026.83
2022-11-19T01:56:34.706Z,95029.86
2022-11-19T01:59:23.360Z,95027.78
2022-11-19T02:07:46.451Z,95041.95
2022-11-19T02:13:26.641Z,95046.95
2022-11-19T02:19:00.419Z,95044.17
2022-11-19T02:24:48.834Z,95040.00
2022-11-19T02:27:51.568Z,95043.71
2022-11-19T02:30:41.479Z,95044.07
2022-11-19T02:39:22.451Z,95039.77
2022-11-19T02:42:14.806Z,95046.85
2022-11-19T02:47:53.875Z,95040.05
2022-11-19T02:53:27.590Z,95043.52
2022-11-19T02:59:23.391Z,95036.36
2022-11-19T03:04:54.154Z,95039.06
2022-11-19T03:07:42.683Z,95037.66
2022-11-19T03:22:25.019Z,95034.30
2022-11-19T03:28:07.391Z,95035.68
2022-11-19T03:33:36.328Z,95030.49
2022-11-19T03:39:09.524Z,95028.91
2022-11-19T03:44:47.830Z,95033.89
2022-11-19T03:47:38.079Z,95036.36
2022-11-19T03:53:19.391Z,95034.50
2022-11-19T03:58:56.437Z,95024.88
2022-11-19T04:01:46.300Z,95025.28
2022-11-19T04:07:30.196Z,95028.59
2022-11-19T04:13:01.280Z,95027.11
2022-11-19T04:15:58.940Z,95019.61
2022-11-19T04:21:33.660Z,95021.64
2022-11-19T04:27:03.190Z,95026.13
2022-11-19T04:32:56.394Z,95025.20
2022-11-19T04:38:25.811Z,95025.88
2022-11-19T04:41:14.346Z,95031.06
2022-11-19T04:46:44.161Z,95025.81
2022-11-19T04:52:19.884Z,95038.81
2022-11-19T04:57:52.968Z,95049.09
2022-11-19T05:00:41.234Z,95045.78
2022-11-19T05:06:18.451Z,95040.75
2022-11-19T05:11:54.277Z,95032.16
2022-11-19T05:17:31.237Z,95029.86
2022-11-19T05:20:20.049Z,95033.86
2022-11-19T05:25:56.115Z,95028.33
2022-11-19T05:31:36.262Z,95031.00
2022-11-19T05:37:12.196Z,95030.87
2022-11-19T05:40:01.223Z,95039.75
2022-11-19T05:45:37.427Z,95036.91
2022-11-19T05:48:25.833Z,95025.76
2022-11-19T05:54:03.619Z,95031.05
2022-11-19T05:56:52.205Z,95033.45
2022-11-19T05:59:43.780Z,95044.31
2022-11-19T06:05:12.262Z,95048.14
2022-11-19T06:10:40.935Z,95043.73
2022-11-19T06:18:55.216Z,95053.81
2022-11-19T06:24:29.619Z,95057.05
2022-11-19T06:30:05.446Z,95056.85
2022-11-19T06:38:21.527Z,95071.66
2022-11-19T06:43:59.848Z,95078.11
2022-11-19T06:47:07.072Z,95087.38
2022-11-19T06:52:34.350Z,95093.27
2022-11-19T07:01:01.736Z,95104.70
2022-11-19T07:06:37.145Z,95111.72
2022-11-19T07:12:07.083Z,95122.34
2022-11-19T07:17:38.036Z,95127.82
2022-11-19T07:20:28.067Z,95131.44
2022-11-19T07:26:03.132Z,95145.14
2022-11-19T07:31:34.365Z,95151.25
2022-11-19T07:34:22.614Z,95147.34
2022-11-19T07:45:24.222Z,95153.47
2022-11-19T07:50:56.444Z,95159.11
2022-11-19T07:53:46.548Z,95156.86
2022-11-19T07:59:16.071Z,95161.17
2022-11-19T08:04:53.126Z,95159.98
2022-11-19T08:10:21.631Z,95169.20
2022-11-19T08:15:49.614Z,95162.37
2022-11-19T08:18:38.325Z,95166.59
2022-11-19T08:24:19.731Z,95175.25
2022-11-19T08:29:51.310Z,95163.20
2022-11-19T08:35:20.211Z,95178.28
2022-11-19T08:38:09.915Z,95184.84
2022-11-19T08:43:38.807Z,95177.63
2022-11-19T08:46:26.879Z,95179.77
2022-11-19T08:54:49.046Z,95171.02
2022-11-19T08:57:38.150Z,95170.95
2022-11-19T09:03:04.549Z,95175.33
2022-11-19T09:08:40.603Z,95177.13
2022-11-19T09:11:29.062Z,95173.28
2022-11-19T09:17:07.291Z,95178.95
2022-11-19T09:28:03.835Z,95183.97
2022-11-19T09:33:39.995Z,95193.86
2022-11-19T09:39:38.929Z,95192.44
2022-11-19T09:42:32.381Z,95197.59
2022-11-19T09:49:15.258Z,95194.82
2022-11-19T09:55:27.103Z,95203.11
2022-11-19T10:01:28.974Z,95200.41
2022-11-19T10:08:01.877Z,95197.70
2022-11-19T10:17:16.957Z,95187.42
2022-11-19T10:23:40.014Z,95187.21
2022-11-19T10:26:33.784Z,95188.89
2022-11-19T10:32:31.371Z,95171.09
2022-11-19T10:35:22.967Z,95171.41
2022-11-19T10:40:57.964Z,95173.74
2022-11-19T10:49:23.337Z,95169.94
2022-11-19T10:55:23.682Z,95174.00
2022-11-19T11:01:05.328Z,95170.16
2022-11-19T11:06:53.215Z,95165.39
2022-11-19T11:12:46.309Z,95167.53
2022-11-19T11:18:17.491Z,95158.17
2022-11-19T11:23:53.361Z,95152.14
2022-11-19T11:29:29.879Z,95145.70
2022-11-19T11:32:31.771Z,95148.52
2022-11-19T11:46:50.256Z,95129.47
2022-11-19T11:52:30.861Z,95125.14
2022-11-19T11:58:28.425Z,95120.84
2022-11-19T12:01:18.561Z,95119.77
2022-11-19T12:06:51.429Z,95124.86
2022-11-19T12:09:44.702Z,95120.21
2022-11-19T12:15:19.902Z,95114.66
2022-11-19T12:20:58.577Z,95110.55
2022-11-19T12:29:28.866Z,95112.55
2022-11-19T12:35:26.487Z,95106.18
2022-11-19T12:38:25.440Z,95122.09
2022-11-19T12:44:00.673Z,95124.20
2022-11-19T12:49:53.331Z,95120.97
2022-11-19T12:55:40.192Z,95123.63
2022-11-19T13:01:15.470Z,95114.91
2022-11-19T13:06:55.110Z,95117.84
2022-11-19T13:09:46.111Z,95113.11
2022-11-19T13:15:20.929Z,95113.11
2022-11-19T13:20:50.832Z,95115.93
2022-11-19T13:26:26.750Z,95116.95
2022-11-19T13:31:58.867Z,95125.76
2022-11-19T13:38:00.060Z,95124.06
2022-11-19T13:44:00.351Z,95118.98
2022-11-19T13:52:24.739Z,95117.41
2022-11-19T13:55:28.975Z,95113.11
2022-11-19T14:01:46.088Z,95112.66
2022-11-19T14:10:43.687Z,95112.30
2022-11-19T14:13:41.604Z,95109.92
2022-11-19T14:19:33.349Z,95118.44
2022-11-19T14:26:00.658Z,95120.70
2022-11-19T14:31:53.029Z,95128.42
2022-11-19T14:37:33.514Z,95135.55
2022-11-19T14:40:23.388Z,95136.14
2022-11-19T14:43:46.353Z,95133.63
2022-11-19T14:46:35.525Z,95133.52
2022-11-19T14:52:23.022Z,95133.20
2022-11-19T14:58:12.387Z,95135.21
2022-11-19T15:01:09.710Z,95143.55
2022-11-19T15:06:47.966Z,95138.30
2022-11-19T15:15:41.722Z,95142.08
2022-11-19T15:19:12.801Z,95147.05
2022-11-19T15:22:23.253Z,95153.00
2022-11-19T15:28:24.426Z,95151.52
2022-11-19T15:31:22.371Z,95150.62
2022-11-19T15:34:38.610Z,95152.74
2022-11-19T15:40:15.100Z,95152.59
2022-11-19T15:45:52.248Z,95156.13
2022-11-19T15:48:43.758Z,95153.70
2022-11-19T15:54:40.986Z,95165.83
2022-11-19T16:00:21.069Z,95171.05
2022-11-19T16:03:11.612Z,95170.14
2022-11-19T16:08:49.263Z,95179.44
2022-11-19T16:14:40.671Z,95187.90
2022-11-19T16:20:22.133Z,95183.97
2022-11-19T16:23:11.785Z,95184.20
2022-11-19T16:28:51.657Z,95191.45
2022-11-19T16:34:26.671Z,95200.25
2022-11-19T16:39:54.870Z,95215.94
2022-11-19T16:45:39.918Z,95212.39
2022-11-19T16:51:45.801Z,95218.69
2022-11-19T16:57:31.830Z,95224.23
2022-11-19T17:03:02.128Z,95226.83
2022-11-19T17:08:32.102Z,95225.22
2022-11-19T17:14:20.480Z,95228.09
2022-11-19T17:20:01.628Z,95231.16
2022-11-19T17:22:49.749Z,95236.44
2022-11-19T17:25:37.895Z,95241.66
2022-11-19T17:28:37.909Z,95247.50
2022-11-19T17:34:20.572Z,95250.70
2022-11-19T17:39:57.103Z,95255.01
2022-11-19T17:45:32.467Z,95247.71
2022-11-19T17:51:15.078Z,95257.45
2022-11-19T17:54:04.271Z,95257.97
2022-11-19T17:56:54.206Z,95265.06
2022-11-19T18:02:24.082Z,95272.08
2022-11-19T18:08:04.043Z,95268.91
2022-11-19T18:13:36.359Z,95276.28
2022-11-19T18:19:14.736Z,95276.66
2022-11-19T18:22:02.971Z,95281.59
2022-11-19T18:27:38.808Z,95282.80
2022-11-19T18:33:10.410Z,95287.26
2022-11-19T18:38:42.526Z,95297.18
2022-11-19T18:44:34.390Z,95299.47
2022-11-19T18:50:13.483Z,95308.02
2022-11-19T18:53:03.500Z,95307.03
2022-11-19T18:58:36.659Z,95309.80
2022-11-19T19:01:25.390Z,95309.83
2022-11-19T19:06:55.933Z,95315.39
2022-11-19T19:12:25.789Z,95318.89
2022-11-19T19:18:06.441Z,95323.41
2022-11-19T19:23:35.790Z,95325.27
2022-11-19T19:26:25.367Z,95327.14
2022-11-19T19:31:55.335Z,95330.91
2022-11-19T19:34:45.565Z,95334.81
2022-11-19T19:37:34.853Z,95340.55
2022-11-19T19:40:23.421Z,95332.55
2022-11-19T19:43:12.938Z,95341.11
2022-11-19T19:46:05.599Z,95341.77
2022-11-19T19:51:41.408Z,95341.20
2022-11-19T19:54:29.699Z,95355.42
2022-11-19T20:00:19.282Z,95347.56
2022-11-19T20:05:51.898Z,95349.14
2022-11-19T20:11:24.122Z,95350.02
2022-11-19T20:16:58.414Z,95362.97
2022-11-19T20:22:33.106Z,95352.03
2022-11-19T20:28:08.669Z,95358.86
2022-11-19T20:33:50.644Z,95358.14
2022-11-19T20:36:38.802Z,95364.88
2022-11-19T20:39:26.655Z,95364.42
2022-11-19T20:45:02.248Z,95367.27
2022-11-19T20:47:50.614Z,95377.95
2022-11-19T20:53:26.027Z,95365.53
2022-11-19T20:58:56.488Z,95359.80
2022-11-19T21:01:44.814Z,95373.52
2022-11-19T21:04:35.516Z,95364.25
2022-11-19T21:10:23.597Z,95369.97
2022-11-19T21:15:54.774Z,95370.04
2022-11-19T21:18:43.300Z,95363.55
2022-11-19T21:21:31.721Z,95363.52
2022-11-19T21:27:08.898Z,95359.80
2022-11-19T21:29:56.590Z,95362.47
2022-11-19T21:32:45.822Z,95366.44
2022-11-19T21:35:34.965Z,95363.36
2022-11-19T21:38:24.226Z,95360.48
2022-11-19T21:41:12.331Z,95363.42
2022-11-19T21:44:01.865Z,95365.72
2022-11-19T21:49:37.892Z,95367.56
2022-11-19T21:55:15.467Z,95366.21
2022-11-19T21:58:05.909Z,95368.25
2022-11-19T22:19:10.912Z,95366.46
2022-11-19T22:29:12.782Z,95368.95
2022-11-19T22:32:06.503Z,95375.88
2022-11-19T22:37:34.767Z,95373.84
2022-11-19T22:40:22.941Z,95384.41
2022-11-19T22:46:00.332Z,95383.75
2022-11-19T22:48:51.846Z,95387.21
2022-11-19T22:51:42.075Z,95386.81
2022-11-19T22:59:51.124Z,95389.87
2022-11-19T23:05:21.606Z,95383.78
2022-11-19T23:11:03.409Z,95388.19
2022-11-19T23:16:38.915Z,95394.18
2022-11-19T23:22:07.369Z,95392.81
2022-11-19T23:27:49.096Z,95399.54
2022-11-19T23:30:38.761Z,95396.45
2022-11-19T23:36:14.286Z,95405.17
2022-11-19T23:41:44.233Z,95400.30
2022-11-19T23:47:12.999Z,95399.99
2022-11-19T23:52:53.070Z,95396.95
2022-11-19T23:58:22.521Z,95396.06
